createdAt,value
2018-10-07T00:00:21.197Z,952.22
2018-10-07T00:01:21.208Z,952.18
2018-10-07T00:02:21.212Z,952.2
2018-10-07T00:03:21.220Z,952.17
2018-10-07T00:04:21.227Z,952.15
2018-10-07T00:05:21.241Z,952.19
2018-10-07T00:06:21.243Z,952.18
2018-10-07T00:07:21.251Z,952.15
2018-10-07T00:08:21.261Z,952.15
2018-10-07T00:09:21.267Z,952.15
2018-10-07T00:10:21.275Z,952.13
2018-10-07T00:11:21.334Z,952.12
2018-10-07T00:12:21.291Z,952.09
2018-10-07T00:13:21.298Z,952.11
2018-10-07T00:14:21.304Z,952.08
2018-10-07T00:15:21.313Z,952.11
2018-10-07T00:16:21.321Z,952.14
2018-10-07T00:17:21.330Z,952.13
2018-10-07T00:18:21.333Z,952.11
2018-10-07T00:19:21.342Z,952.14
2018-10-07T00:20:21.349Z,952.13
2018-10-07T00:21:21.358Z,952.15
2018-10-07T00:22:21.368Z,952.12
2018-10-07T00:23:21.381Z,952.13
2018-10-07T00:24:21.382Z,952.12
2018-10-07T00:25:21.390Z,952.09
2018-10-07T00:26:21.446Z,952.08
2018-10-07T00:27:21.404Z,952.03
2018-10-07T00:28:21.412Z,952.04
2018-10-07T00:29:21.421Z,952.08
2018-10-07T00:30:21.430Z,952.02
2018-10-07T00:31:21.435Z,952
2018-10-07T00:32:21.445Z,951.97
2018-10-07T00:33:21.451Z,951.97
2018-10-07T00:34:21.466Z,952.03
2018-10-07T00:35:21.467Z,952
2018-10-07T00:36:21.475Z,952.02
2018-10-07T00:37:21.483Z,951.99
2018-10-07T00:38:21.494Z,951.96
2018-10-07T00:39:21.497Z,952.01
2018-10-07T00:40:21.506Z,952.04
2018-10-07T00:41:21.565Z,952
2018-10-07T00:42:21.521Z,951.94
2018-10-07T00:43:21.529Z,951.94
2018-10-07T00:44:21.537Z,951.99
2018-10-07T00:45:21.544Z,951.93
2018-10-07T00:46:21.552Z,951.93
2018-10-07T00:47:21.559Z,951.96
2018-10-07T00:48:21.585Z,951.95
2018-10-07T00:49:21.576Z,951.93
2018-10-07T00:50:21.583Z,951.95
2018-10-07T00:51:21.590Z,951.93
2018-10-07T00:52:21.599Z,951.93
2018-10-07T00:53:21.606Z,951.91
2018-10-07T00:54:21.619Z,951.91
2018-10-07T00:55:21.644Z,951.9
2018-10-07T00:56:21.679Z,951.9
2018-10-07T00:57:21.635Z,951.88
2018-10-07T00:58:21.644Z,951.93
2018-10-07T00:59:21.652Z,951.95
2018-10-07T01:00:21.663Z,951.92
2018-10-07T01:01:21.667Z,951.94
2018-10-07T01:02:21.676Z,951.9
2018-10-07T01:03:21.682Z,951.9
2018-10-07T01:04:21.689Z,951.89
2018-10-07T01:05:21.702Z,951.89
2018-10-07T01:06:21.707Z,951.92
2018-10-07T01:07:21.714Z,951.92
2018-10-07T01:08:21.720Z,951.88
2018-10-07T01:09:21.726Z,951.89
2018-10-07T01:10:21.734Z,951.9
2018-10-07T01:11:21.792Z,951.9
2018-10-07T01:12:21.749Z,951.87
2018-10-07T01:13:21.757Z,951.88
2018-10-07T01:14:21.765Z,951.88
2018-10-07T01:15:21.772Z,951.86
2018-10-07T01:16:21.779Z,951.84
2018-10-07T01:17:21.792Z,951.86
2018-10-07T01:18:21.797Z,951.88
2018-10-07T01:19:21.805Z,951.84
2018-10-07T01:20:21.813Z,951.86
2018-10-07T01:21:21.820Z,951.87
2018-10-07T01:22:21.828Z,951.85
2018-10-07T01:23:21.838Z,951.9
2018-10-07T01:24:21.846Z,951.88
2018-10-07T01:25:21.851Z,951.86
2018-10-07T01:26:22.960Z,951.87
2018-10-07T01:27:21.872Z,951.88
2018-10-07T01:28:21.875Z,951.89
2018-10-07T01:29:21.884Z,951.91
2018-10-07T01:30:21.894Z,951.95
2018-10-07T01:31:21.900Z,951.93
2018-10-07T01:32:21.907Z,951.96
2018-10-07T01:33:21.915Z,951.92
2018-10-07T01:34:21.922Z,951.94
2018-10-07T01:35:21.934Z,951.96
2018-10-07T01:36:21.938Z,951.95
2018-10-07T01:37:21.947Z,951.95
2018-10-07T01:38:21.953Z,951.95
2018-10-07T01:39:21.961Z,951.98
2018-10-07T01:40:21.969Z,951.96
2018-10-07T01:41:22.026Z,952.05
2018-10-07T01:42:21.985Z,951.98
2018-10-07T01:43:21.992Z,952.02
2018-10-07T01:44:22.000Z,951.98
2018-10-07T01:45:22.009Z,951.98
2018-10-07T01:46:22.016Z,951.98
2018-10-07T01:47:22.032Z,951.98
2018-10-07T01:48:22.030Z,951.99
2018-10-07T01:49:22.038Z,952
2018-10-07T01:50:22.049Z,952.02
2018-10-07T01:51:22.053Z,952.01
2018-10-07T01:52:22.059Z,952.03
2018-10-07T01:53:22.067Z,952.04
2018-10-07T01:54:22.074Z,952.05
2018-10-07T01:55:22.085Z,952.06
2018-10-07T01:56:22.141Z,952.05
2018-10-07T01:57:22.104Z,952.06
2018-10-07T01:58:22.105Z,952.06
2018-10-07T01:59:22.130Z,952.04
2018-10-07T02:00:22.122Z,952.03
2018-10-07T02:01:22.135Z,951.98
2018-10-07T02:02:22.138Z,952.02
2018-10-07T02:03:22.144Z,952.04
2018-10-07T02:04:22.158Z,952.05
2018-10-07T02:05:22.166Z,952.04
2018-10-07T02:06:22.168Z,952.07
2018-10-07T02:07:22.178Z,952.05
2018-10-07T02:08:22.183Z,952.05
2018-10-07T02:09:22.190Z,952.06
2018-10-07T02:10:22.195Z,952.1
2018-10-07T02:11:22.252Z,952.1
2018-10-07T02:12:22.212Z,952.07
2018-10-07T02:13:22.218Z,952.02
2018-10-07T02:14:22.226Z,952.02
2018-10-07T02:15:22.233Z,951.99
2018-10-07T02:16:22.341Z,951.99
2018-10-07T02:17:22.252Z,952.02
2018-10-07T02:18:22.256Z,952.01
2018-10-07T02:19:22.263Z,952.02
2018-10-07T02:20:22.273Z,952.03
2018-10-07T02:21:22.330Z,952.01
2018-10-07T02:22:22.288Z,952.03
2018-10-07T02:23:22.296Z,952.04
2018-10-07T02:24:22.303Z,952.04
2018-10-07T02:25:22.311Z,952.04
2018-10-07T02:26:22.318Z,952.06
2018-10-07T02:27:22.326Z,952.12
2018-10-07T02:28:22.335Z,952.12
2018-10-07T02:29:22.343Z,952.13
2018-10-07T02:30:22.351Z,952.08
2018-10-07T02:31:22.360Z,952.08
2018-10-07T02:32:22.367Z,952.06
2018-10-07T02:33:22.375Z,952.1
2018-10-07T02:34:22.382Z,952.11
2018-10-07T02:35:22.390Z,952.14
2018-10-07T02:36:22.447Z,952.14
2018-10-07T02:37:22.416Z,952.16
2018-10-07T02:38:22.417Z,952.17
2018-10-07T02:39:22.419Z,952.17
2018-10-07T02:40:22.426Z,952.15
2018-10-07T02:41:22.435Z,952.14
2018-10-07T02:42:22.444Z,952.11
2018-10-07T02:43:22.451Z,952.15
2018-10-07T02:44:22.457Z,952.15
2018-10-07T02:45:22.466Z,952.14
2018-10-07T02:46:22.575Z,952.14
2018-10-07T02:47:22.480Z,952.12
2018-10-07T02:48:22.489Z,952.21
2018-10-07T02:49:22.497Z,952.18
2018-10-07T02:50:22.505Z,952.18
2018-10-07T02:51:22.563Z,952.13
2018-10-07T02:52:22.520Z,952.15
2018-10-07T02:53:22.740Z,952.18
2018-10-07T02:54:22.534Z,952.16
2018-10-07T02:55:22.542Z,952.18
2018-10-07T02:56:22.603Z,952.17
2018-10-07T02:57:22.559Z,952.18
2018-10-07T02:58:22.565Z,952.18
2018-10-07T02:59:22.575Z,952.16
2018-10-07T03:00:22.583Z,952.18
2018-10-07T03:01:22.594Z,952.13
2018-10-07T03:02:22.601Z,952.14
2018-10-07T03:03:22.611Z,952.18
2018-10-07T03:04:22.614Z,952.19
2018-10-07T03:05:22.623Z,952.21
2018-10-07T03:06:22.678Z,952.21
2018-10-07T03:07:22.637Z,952.21
2018-10-07T03:08:22.648Z,952.21
2018-10-07T03:09:22.654Z,952.23
2018-10-07T03:10:22.659Z,952.22
2018-10-07T03:11:22.667Z,952.17
2018-10-07T03:12:22.674Z,952.23
2018-10-07T03:13:22.681Z,952.18
2018-10-07T03:14:22.693Z,952.2
2018-10-07T03:15:22.698Z,952.22
2018-10-07T03:16:22.806Z,952.2
2018-10-07T03:17:22.711Z,952.16
2018-10-07T03:18:22.720Z,952.16
2018-10-07T03:19:22.725Z,952.21
2018-10-07T03:20:22.737Z,952.17
2018-10-07T03:21:22.790Z,952.21
2018-10-07T03:22:22.749Z,952.2
2018-10-07T03:23:22.754Z,952.25
2018-10-07T03:24:22.761Z,952.24
2018-10-07T03:25:22.769Z,952.27
2018-10-07T03:26:22.777Z,952.26
2018-10-07T03:27:22.790Z,952.25
2018-10-07T03:28:22.792Z,952.27
2018-10-07T03:29:22.826Z,952.25
2018-10-07T03:30:22.811Z,952.27
2018-10-07T03:31:22.820Z,952.26
2018-10-07T03:32:22.830Z,952.29
2018-10-07T03:33:22.836Z,952.27
2018-10-07T03:34:22.858Z,952.27
2018-10-07T03:35:22.850Z,952.31
2018-10-07T03:36:22.909Z,952.22
2018-10-07T03:37:22.866Z,952.25
2018-10-07T03:38:22.878Z,952.25
2018-10-07T03:39:22.882Z,952.22
2018-10-07T03:40:22.887Z,952.22
2018-10-07T03:41:22.908Z,952.25
2018-10-07T03:42:22.903Z,952.23
2018-10-07T03:43:22.910Z,952.22
2018-10-07T03:44:22.919Z,952.2
2018-10-07T03:45:22.926Z,952.19
2018-10-07T03:46:22.933Z,952.24
2018-10-07T03:47:22.940Z,952.25
2018-10-07T03:48:22.950Z,952.26
2018-10-07T03:49:22.955Z,952.26
2018-10-07T03:50:22.963Z,952.25
2018-10-07T03:51:23.021Z,952.28
2018-10-07T03:52:22.977Z,952.3
2018-10-07T03:53:22.989Z,952.31
2018-10-07T03:54:22.994Z,952.3
2018-10-07T03:55:23.001Z,952.32
2018-10-07T03:56:23.008Z,952.31
2018-10-07T03:57:23.019Z,952.37
2018-10-07T03:58:23.025Z,952.35
2018-10-07T03:59:23.032Z,952.37
2018-10-07T04:00:23.038Z,952.39
2018-10-07T04:01:23.047Z,952.34
2018-10-07T04:02:23.056Z,952.36
2018-10-07T04:03:23.060Z,952.37
2018-10-07T04:04:23.068Z,952.38
2018-10-07T04:05:23.077Z,952.38
2018-10-07T04:06:23.134Z,952.39
2018-10-07T04:07:23.091Z,952.42
2018-10-07T04:08:23.099Z,952.38
2018-10-07T04:09:23.106Z,952.4
2018-10-07T04:10:23.114Z,952.46
2018-10-07T04:11:23.121Z,952.43
2018-10-07T04:12:23.128Z,952.43
2018-10-07T04:13:23.136Z,952.47
2018-10-07T04:14:23.151Z,952.45
2018-10-07T04:15:23.156Z,952.49
2018-10-07T04:16:23.160Z,952.51
2018-10-07T04:17:23.167Z,952.51
2018-10-07T04:18:23.172Z,952.52
2018-10-07T04:19:23.183Z,952.55
2018-10-07T04:20:23.188Z,952.53
2018-10-07T04:21:23.345Z,952.53
2018-10-07T04:22:23.201Z,952.54
2018-10-07T04:23:23.209Z,952.54
2018-10-07T04:24:23.217Z,952.53
2018-10-07T04:25:23.224Z,952.47
2018-10-07T04:26:23.231Z,952.53
2018-10-07T04:27:23.241Z,952.52
2018-10-07T04:28:23.246Z,952.51
2018-10-07T04:29:23.259Z,952.54
2018-10-07T04:30:23.261Z,952.55
2018-10-07T04:31:23.268Z,952.59
2018-10-07T04:32:23.276Z,952.56
2018-10-07T04:33:23.284Z,952.54
2018-10-07T04:34:23.298Z,952.58
2018-10-07T04:35:23.299Z,952.6
2018-10-07T04:36:23.357Z,952.58
2018-10-07T04:37:23.320Z,952.61
2018-10-07T04:38:23.322Z,952.61
2018-10-07T04:39:23.330Z,952.63
2018-10-07T04:40:23.336Z,952.59
2018-10-07T04:41:23.346Z,952.64
2018-10-07T04:42:23.356Z,952.66
2018-10-07T04:43:23.370Z,952.63
2018-10-07T04:44:23.366Z,952.65
2018-10-07T04:45:23.374Z,952.65
2018-10-07T04:46:23.456Z,952.67
2018-10-07T04:47:23.391Z,952.66
2018-10-07T04:48:23.397Z,952.63
2018-10-07T04:49:23.404Z,952.67
2018-10-07T04:50:23.437Z,952.69
2018-10-07T04:51:23.468Z,952.76
2018-10-07T04:52:23.425Z,952.72
2018-10-07T04:53:23.432Z,952.71
2018-10-07T04:54:23.441Z,952.74
2018-10-07T04:55:23.448Z,952.71
2018-10-07T04:56:23.507Z,952.73
2018-10-07T04:57:23.464Z,952.77
2018-10-07T04:58:23.474Z,952.74
2018-10-07T04:59:23.478Z,952.79
2018-10-07T05:00:23.567Z,952.77
2018-10-07T05:01:23.494Z,952.8
2018-10-07T05:02:23.501Z,952.78
2018-10-07T05:03:23.513Z,952.78
2018-10-07T05:04:23.516Z,952.8
2018-10-07T05:05:23.526Z,952.8
2018-10-07T05:06:23.531Z,952.76
2018-10-07T05:07:23.539Z,952.78
2018-10-07T05:08:23.548Z,952.78
2018-10-07T05:09:23.553Z,952.8
2018-10-07T05:10:23.562Z,952.8
2018-10-07T05:11:23.627Z,952.81
2018-10-07T05:12:23.632Z,952.8
2018-10-07T05:13:23.583Z,952.81
2018-10-07T05:14:23.591Z,952.8
2018-10-07T05:15:23.599Z,952.86
2018-10-07T05:16:23.605Z,952.87
2018-10-07T05:17:23.614Z,952.85
2018-10-07T05:18:23.621Z,952.89
2018-10-07T05:19:23.628Z,952.86
2018-10-07T05:20:23.636Z,952.88
2018-10-07T05:21:23.643Z,952.88
2018-10-07T05:22:23.654Z,952.93
2018-10-07T05:23:23.659Z,952.94
2018-10-07T05:24:23.668Z,952.89
2018-10-07T05:25:23.673Z,952.96
2018-10-07T05:26:23.733Z,952.91
2018-10-07T05:27:23.688Z,952.96
2018-10-07T05:28:23.695Z,952.97
2018-10-07T05:29:23.703Z,952.93
2018-10-07T05:30:23.710Z,952.97
2018-10-07T05:31:23.717Z,952.97
2018-10-07T05:32:23.725Z,952.97
2018-10-07T05:33:23.803Z,952.98
2018-10-07T05:34:23.739Z,953.03
2018-10-07T05:35:23.745Z,953
2018-10-07T05:36:23.753Z,953
2018-10-07T05:37:23.762Z,953.01
2018-10-07T05:38:23.771Z,953.05
2018-10-07T05:39:23.777Z,953.07
2018-10-07T05:40:23.784Z,953.05
2018-10-07T05:41:23.846Z,953.04
2018-10-07T05:42:23.800Z,953.06
2018-10-07T05:43:23.807Z,953.1
2018-10-07T05:44:23.869Z,953.05
2018-10-07T05:45:23.823Z,953.05
2018-10-07T05:46:23.828Z,953.07
2018-10-07T05:47:23.836Z,953.13
2018-10-07T05:48:23.845Z,953.11
2018-10-07T05:49:23.852Z,953.12
2018-10-07T05:50:23.863Z,953.09
2018-10-07T05:51:23.867Z,953.13
2018-10-07T05:52:23.884Z,953.15
2018-10-07T05:53:23.882Z,953.14
2018-10-07T05:54:23.890Z,953.19
2018-10-07T05:55:23.897Z,953.16
2018-10-07T05:56:23.959Z,953.18
2018-10-07T05:57:23.911Z,953.17
2018-10-07T05:58:23.920Z,953.2
2018-10-07T05:59:23.939Z,953.18
2018-10-07T06:00:23.934Z,953.19
2018-10-07T06:01:24.045Z,953.2
2018-10-07T06:02:23.951Z,953.23
2018-10-07T06:03:23.958Z,953.25
2018-10-07T06:04:23.965Z,953.25
2018-10-07T06:05:23.972Z,953.27
2018-10-07T06:06:24.002Z,953.29
2018-10-07T06:07:23.987Z,953.25
2018-10-07T06:08:23.993Z,953.27
2018-10-07T06:09:24.001Z,953.27
2018-10-07T06:10:24.009Z,953.29
2018-10-07T06:11:24.066Z,953.28
2018-10-07T06:12:24.025Z,953.29
2018-10-07T06:13:24.032Z,953.32
2018-10-07T06:14:24.039Z,953.37
2018-10-07T06:15:24.046Z,953.4
2018-10-07T06:16:24.055Z,953.4
2018-10-07T06:17:24.063Z,953.43
2018-10-07T06:18:24.069Z,953.43
2018-10-07T06:19:24.077Z,953.47
2018-10-07T06:20:24.085Z,953.44
2018-10-07T06:21:24.163Z,953.47
2018-10-07T06:22:24.099Z,953.5
2018-10-07T06:23:24.106Z,953.52
2018-10-07T06:24:24.116Z,953.51
2018-10-07T06:25:24.125Z,953.5
2018-10-07T06:26:24.177Z,953.52
2018-10-07T06:27:24.137Z,953.51
2018-10-07T06:28:24.144Z,953.56
2018-10-07T06:29:24.151Z,953.55
2018-10-07T06:30:24.159Z,953.59
2018-10-07T06:31:24.167Z,953.59
2018-10-07T06:32:24.175Z,953.6
2018-10-07T06:33:24.182Z,953.58
2018-10-07T06:34:24.188Z,953.6
2018-10-07T06:35:24.196Z,953.65
2018-10-07T06:36:24.204Z,953.68
2018-10-07T06:37:24.211Z,953.67
2018-10-07T06:38:24.220Z,953.7
2018-10-07T06:39:24.227Z,953.68
2018-10-07T06:40:24.237Z,953.75
2018-10-07T06:41:24.294Z,953.73
2018-10-07T06:42:24.253Z,953.77
2018-10-07T06:43:24.259Z,953.73
2018-10-07T06:44:24.266Z,953.8
2018-10-07T06:45:24.301Z,953.8
2018-10-07T06:46:24.282Z,953.83
2018-10-07T06:47:24.291Z,953.82
2018-10-07T06:48:24.297Z,953.84
2018-10-07T06:49:24.305Z,953.85
2018-10-07T06:50:24.313Z,953.86
2018-10-07T06:51:24.319Z,953.88
2018-10-07T06:52:24.327Z,953.92
2018-10-07T06:53:24.338Z,953.93
2018-10-07T06:54:24.342Z,953.94
2018-10-07T06:55:24.349Z,954
2018-10-07T06:56:24.408Z,953.98
2018-10-07T06:57:24.366Z,953.96
2018-10-07T06:58:24.372Z,954
2018-10-07T06:59:24.439Z,953.98
2018-10-07T07:00:24.395Z,953.97
2018-10-07T07:01:24.397Z,953.99
2018-10-07T07:02:24.404Z,953.95
2018-10-07T07:03:24.414Z,953.95
2018-10-07T07:04:24.418Z,953.95
2018-10-07T07:05:24.428Z,953.98
2018-10-07T07:06:24.522Z,953.98
2018-10-07T07:07:24.443Z,953.96
2018-10-07T07:08:24.450Z,953.97
2018-10-07T07:09:24.459Z,953.99
2018-10-07T07:10:24.464Z,954.02
2018-10-07T07:11:24.523Z,954.06
2018-10-07T07:12:24.481Z,954.04
2018-10-07T07:13:24.487Z,954.04
2018-10-07T07:14:24.498Z,954.05
2018-10-07T07:15:24.510Z,954.04
2018-10-07T07:16:24.511Z,954.05
2018-10-07T07:17:24.519Z,954.07
2018-10-07T07:18:24.526Z,954.1
2018-10-07T07:19:24.534Z,954.1
2018-10-07T07:20:24.547Z,954.12
2018-10-07T07:21:24.551Z,954.17
2018-10-07T07:22:24.572Z,954.15
2018-10-07T07:23:24.567Z,954.19
2018-10-07T07:24:24.577Z,954.16
2018-10-07T07:25:24.583Z,954.21
2018-10-07T07:26:24.640Z,954.2
2018-10-07T07:27:24.596Z,954.22
2018-10-07T07:28:24.605Z,954.25
2018-10-07T07:29:24.613Z,954.25
2018-10-07T07:30:24.621Z,954.28
2018-10-07T07:31:24.737Z,954.31
2018-10-07T07:32:24.635Z,954.3
2018-10-07T07:33:24.643Z,954.33
2018-10-07T07:34:24.651Z,954.33
2018-10-07T07:35:24.658Z,954.36
2018-10-07T07:36:24.667Z,954.37
2018-10-07T07:37:24.675Z,954.38
2018-10-07T07:38:24.682Z,954.4
2018-10-07T07:39:24.690Z,954.42
2018-10-07T07:40:24.698Z,954.41
2018-10-07T07:41:24.707Z,954.44
2018-10-07T07:42:24.786Z,954.45
2018-10-07T07:43:24.723Z,954.52
2018-10-07T07:44:24.730Z,954.52
2018-10-07T07:45:24.741Z,954.5
2018-10-07T07:46:24.800Z,954.56
2018-10-07T07:47:24.754Z,954.53
2018-10-07T07:48:24.761Z,954.54
2018-10-07T07:49:24.771Z,954.57
2018-10-07T07:50:24.777Z,954.53
2018-10-07T07:51:24.786Z,954.56
2018-10-07T07:52:24.794Z,954.59
2018-10-07T07:53:24.802Z,954.62
2018-10-07T07:54:24.810Z,954.54
2018-10-07T07:55:24.818Z,954.6
2018-10-07T07:56:24.878Z,954.62
2018-10-07T07:57:24.835Z,954.67
2018-10-07T07:58:24.845Z,954.66
2018-10-07T07:59:24.851Z,954.66
2018-10-07T08:00:24.861Z,954.69
2018-10-07T08:01:24.868Z,954.72
2018-10-07T08:02:24.874Z,954.72
2018-10-07T08:03:24.883Z,954.73
2018-10-07T08:04:24.896Z,954.74
2018-10-07T08:05:24.900Z,954.75
2018-10-07T08:06:25.113Z,954.77
2018-10-07T08:07:24.918Z,954.76
2018-10-07T08:08:24.926Z,954.75
2018-10-07T08:09:24.936Z,954.75
2018-10-07T08:10:24.945Z,954.76
2018-10-07T08:11:25.008Z,954.77
2018-10-07T08:12:24.962Z,954.79
2018-10-07T08:13:24.971Z,954.79
2018-10-07T08:14:24.980Z,954.84
2018-10-07T08:15:24.987Z,954.84
2018-10-07T08:16:24.997Z,954.87
2018-10-07T08:17:25.067Z,954.84
2018-10-07T08:18:25.014Z,954.87
2018-10-07T08:19:25.024Z,954.84
2018-10-07T08:20:25.033Z,954.86
2018-10-07T08:21:25.042Z,954.86
2018-10-07T08:22:25.051Z,954.88
2018-10-07T08:23:25.137Z,954.89
2018-10-07T08:24:25.070Z,954.86
2018-10-07T08:25:25.079Z,954.91
2018-10-07T08:26:25.137Z,954.89
2018-10-07T08:27:25.095Z,954.89
2018-10-07T08:28:25.106Z,954.88
2018-10-07T08:29:25.116Z,954.88
2018-10-07T08:30:25.125Z,954.86
2018-10-07T08:31:25.132Z,954.86
2018-10-07T08:32:25.139Z,954.87
2018-10-07T08:33:25.150Z,954.92
2018-10-07T08:34:25.157Z,954.9
2018-10-07T08:35:25.168Z,954.89
2018-10-07T08:36:25.176Z,954.93
2018-10-07T08:37:25.184Z,954.9
2018-10-07T08:38:25.195Z,954.89
2018-10-07T08:39:25.252Z,954.94
2018-10-07T08:40:25.218Z,954.92
2018-10-07T08:41:25.270Z,954.92
2018-10-07T08:42:25.230Z,954.93
2018-10-07T08:43:25.239Z,954.91
2018-10-07T08:44:25.250Z,954.9
2018-10-07T08:45:25.256Z,954.9
2018-10-07T08:46:25.266Z,954.9
2018-10-07T08:47:25.274Z,954.91
2018-10-07T08:48:25.284Z,954.88
2018-10-07T08:49:25.300Z,954.89
2018-10-07T08:50:25.301Z,954.9
2018-10-07T08:51:25.311Z,954.9
2018-10-07T08:52:25.319Z,954.93
2018-10-07T08:53:25.328Z,954.92
2018-10-07T08:54:25.336Z,954.94
2018-10-07T08:55:25.346Z,954.92
2018-10-07T08:56:25.467Z,954.96
2018-10-07T08:57:25.364Z,954.93
2018-10-07T08:58:25.373Z,954.93
2018-10-07T08:59:25.380Z,954.91
2018-10-07T09:00:25.390Z,954.91
2018-10-07T09:01:25.452Z,954.92
2018-10-07T09:02:25.408Z,954.93
2018-10-07T09:03:25.417Z,954.95
2018-10-07T09:04:25.448Z,954.93
2018-10-07T09:05:25.435Z,954.96
2018-10-07T09:06:25.444Z,954.97
2018-10-07T09:07:25.456Z,955
2018-10-07T09:08:25.461Z,955.03
2018-10-07T09:09:25.490Z,955.02
2018-10-07T09:10:25.479Z,955.05
2018-10-07T09:11:25.538Z,955.09
2018-10-07T09:12:25.497Z,955.08
2018-10-07T09:13:25.506Z,955.11
2018-10-07T09:14:25.515Z,955.12
2018-10-07T09:15:25.525Z,955.11
2018-10-07T09:16:26.584Z,955.09
2018-10-07T09:17:25.541Z,955.09
2018-10-07T09:18:25.550Z,955.11
2018-10-07T09:19:25.558Z,955.07
2018-10-07T09:20:25.569Z,955.09
2018-10-07T09:21:25.581Z,955.1
2018-10-07T09:22:25.586Z,955.11
2018-10-07T09:23:25.595Z,955.14
2018-10-07T09:24:25.604Z,955.17
2018-10-07T09:25:25.612Z,955.19
2018-10-07T09:26:25.623Z,955.21
2018-10-07T09:27:25.654Z,955.22
2018-10-07T09:28:25.640Z,955.25
2018-10-07T09:29:25.651Z,955.24
2018-10-07T09:30:25.658Z,955.24
2018-10-07T09:31:25.717Z,955.22
2018-10-07T09:32:25.763Z,955.25
2018-10-07T09:33:25.687Z,955.25
2018-10-07T09:34:25.716Z,955.28
2018-10-07T09:35:25.705Z,955.28
2018-10-07T09:36:25.729Z,955.26
2018-10-07T09:37:25.724Z,955.24
2018-10-07T09:38:25.731Z,955.29
2018-10-07T09:39:25.769Z,955.28
2018-10-07T09:40:25.749Z,955.26
2018-10-07T09:41:25.761Z,955.3
2018-10-07T09:42:25.769Z,955.29
2018-10-07T09:43:25.778Z,955.31
2018-10-07T09:44:25.785Z,955.27
2018-10-07T09:45:25.796Z,955.28
2018-10-07T09:46:25.856Z,955.27
2018-10-07T09:47:25.815Z,955.32
2018-10-07T09:48:25.826Z,955.29
2018-10-07T09:49:25.835Z,955.26
2018-10-07T09:50:25.852Z,955.3
2018-10-07T09:51:25.863Z,955.26
2018-10-07T09:52:25.972Z,955.25
2018-10-07T09:53:25.875Z,955.2
2018-10-07T09:54:25.884Z,955.2
2018-10-07T09:55:25.894Z,955.21
2018-10-07T09:56:25.903Z,955.19
2018-10-07T09:57:25.914Z,955.18
2018-10-07T09:58:25.922Z,955.21
2018-10-07T09:59:25.931Z,955.21
2018-10-07T10:00:25.941Z,955.24
2018-10-07T10:01:26.144Z,955.24
2018-10-07T10:02:25.959Z,955.26
2018-10-07T10:03:25.969Z,955.25
2018-10-07T10:04:26.014Z,955.25
2018-10-07T10:05:25.988Z,955.25
2018-10-07T10:06:26.051Z,955.25
2018-10-07T10:07:26.008Z,955.25
2018-10-07T10:08:26.021Z,955.25
2018-10-07T10:09:26.030Z,955.29
2018-10-07T10:10:26.038Z,955.25
2018-10-07T10:11:26.212Z,955.23
2018-10-07T10:12:26.057Z,955.25
2018-10-07T10:13:26.068Z,955.26
2018-10-07T10:14:26.084Z,955.27
2018-10-07T10:15:26.090Z,955.27
2018-10-07T10:16:26.147Z,955.29
2018-10-07T10:17:26.161Z,955.33
2018-10-07T10:18:26.118Z,955.34
2018-10-07T10:19:26.135Z,955.35
2018-10-07T10:20:26.138Z,955.41
2018-10-07T10:21:26.148Z,955.38
2018-10-07T10:22:26.160Z,955.43
2018-10-07T10:23:26.168Z,955.4
2018-10-07T10:24:26.180Z,955.43
2018-10-07T10:25:26.188Z,955.38
2018-10-07T10:26:26.197Z,955.41
2018-10-07T10:27:26.208Z,955.41
2018-10-07T10:28:26.218Z,955.41
2018-10-07T10:29:26.232Z,955.4
2018-10-07T10:30:26.239Z,955.47
2018-10-07T10:31:26.298Z,955.45
2018-10-07T10:32:26.261Z,955.52
2018-10-07T10:33:26.268Z,955.54
2018-10-07T10:34:26.279Z,955.5
2018-10-07T10:35:26.289Z,955.51
2018-10-07T10:36:26.298Z,955.53
2018-10-07T10:37:26.310Z,955.54
2018-10-07T10:38:26.319Z,955.58
2018-10-07T10:39:26.335Z,955.55
2018-10-07T10:40:26.339Z,955.57
2018-10-07T10:41:26.350Z,955.57
2018-10-07T10:42:26.359Z,955.57
2018-10-07T10:43:26.369Z,955.54
2018-10-07T10:44:26.379Z,955.54
2018-10-07T10:45:26.390Z,955.55
2018-10-07T10:46:26.451Z,955.61
2018-10-07T10:47:26.413Z,955.59
2018-10-07T10:48:26.423Z,955.57
2018-10-07T10:49:26.432Z,955.6
2018-10-07T10:50:26.443Z,955.58
2018-10-07T10:51:26.456Z,955.56
2018-10-07T10:52:26.467Z,955.61
2018-10-07T10:53:26.479Z,955.59
2018-10-07T10:54:26.485Z,955.55
2018-10-07T10:55:26.498Z,955.55
2018-10-07T10:56:26.508Z,955.58
2018-10-07T10:57:26.519Z,955.53
2018-10-07T10:58:26.529Z,955.57
2018-10-07T10:59:26.541Z,955.58
2018-10-07T11:00:26.551Z,955.62
2018-10-07T11:01:26.714Z,955.62
2018-10-07T11:02:26.573Z,955.59
2018-10-07T11:03:26.585Z,955.59
2018-10-07T11:04:26.605Z,955.6
2018-10-07T11:05:26.607Z,955.62
2018-10-07T11:06:26.718Z,955.67
2018-10-07T11:07:26.633Z,955.64
2018-10-07T11:08:26.639Z,955.65
2018-10-07T11:09:26.656Z,955.59
2018-10-07T11:10:26.664Z,955.64
2018-10-07T11:11:26.676Z,955.62
2018-10-07T11:12:26.750Z,955.59
2018-10-07T11:13:26.696Z,955.61
2018-10-07T11:14:26.707Z,955.6
2018-10-07T11:15:26.757Z,955.66
2018-10-07T11:16:26.779Z,955.65
2018-10-07T11:17:26.742Z,955.66
2018-10-07T11:18:26.751Z,955.65
2018-10-07T11:19:26.853Z,955.64
2018-10-07T11:20:26.775Z,955.64
2018-10-07T11:21:26.785Z,955.65
2018-10-07T11:22:26.797Z,955.64
2018-10-07T11:23:26.810Z,955.64
2018-10-07T11:24:26.820Z,955.59
2018-10-07T11:25:26.833Z,955.59
2018-10-07T11:26:26.845Z,955.6
2018-10-07T11:27:26.873Z,955.62
2018-10-07T11:28:26.870Z,955.64
2018-10-07T11:29:26.879Z,955.66
2018-10-07T11:30:26.893Z,955.67
2018-10-07T11:31:26.954Z,955.63
2018-10-07T11:32:26.916Z,955.64
2018-10-07T11:33:26.928Z,955.65
2018-10-07T11:34:26.941Z,955.72
2018-10-07T11:35:26.954Z,955.69
2018-10-07T11:36:26.965Z,955.71
2018-10-07T11:37:26.979Z,955.67
2018-10-07T11:38:26.991Z,955.68
2018-10-07T11:39:27.006Z,955.72
2018-10-07T11:40:27.016Z,955.72
2018-10-07T11:41:27.033Z,955.79
2018-10-07T11:42:27.043Z,955.8
2018-10-07T11:43:27.057Z,955.75
2018-10-07T11:44:27.070Z,955.78
2018-10-07T11:45:27.085Z,955.77
2018-10-07T11:46:27.150Z,955.85
2018-10-07T11:47:27.112Z,955.81
2018-10-07T11:48:27.127Z,955.77
2018-10-07T11:49:27.141Z,955.84
2018-10-07T11:50:27.156Z,955.76
2018-10-07T11:51:27.222Z,955.76
2018-10-07T11:52:27.188Z,955.77
2018-10-07T11:53:27.206Z,955.78
2018-10-07T11:54:27.217Z,955.75
2018-10-07T11:55:27.233Z,955.76
2018-10-07T11:56:27.248Z,955.76
2018-10-07T11:57:27.266Z,955.78
2018-10-07T11:58:27.280Z,955.74
2018-10-07T11:59:27.295Z,955.76
2018-10-07T12:00:27.311Z,955.78
2018-10-07T12:01:27.425Z,955.74
2018-10-07T12:02:27.376Z,955.71
2018-10-07T12:03:27.357Z,955.66
2018-10-07T12:04:27.370Z,955.7
2018-10-07T12:05:27.387Z,955.67
2018-10-07T12:06:27.450Z,955.64
2018-10-07T12:07:27.419Z,955.67
2018-10-07T12:08:27.431Z,955.62
2018-10-07T12:09:27.445Z,955.65
2018-10-07T12:10:27.461Z,955.66
2018-10-07T12:11:27.476Z,955.69
2018-10-07T12:12:27.494Z,955.66
2018-10-07T12:13:27.504Z,955.65
2018-10-07T12:14:27.519Z,955.67
2018-10-07T12:15:27.534Z,955.69
2018-10-07T12:16:27.612Z,955.7
2018-10-07T12:17:27.561Z,955.69
2018-10-07T12:18:27.576Z,955.73
2018-10-07T12:19:27.590Z,955.69
2018-10-07T12:20:27.603Z,955.71
2018-10-07T12:21:27.667Z,955.71
2018-10-07T12:22:27.632Z,955.72
2018-10-07T12:23:27.649Z,955.67
2018-10-07T12:24:27.659Z,955.7
2018-10-07T12:25:27.676Z,955.72
2018-10-07T12:26:27.740Z,955.65
2018-10-07T12:27:27.701Z,955.69
2018-10-07T12:28:27.713Z,955.7
2018-10-07T12:29:27.728Z,955.69
2018-10-07T12:30:27.741Z,955.73
2018-10-07T12:31:27.955Z,955.72